sensor_id;sensor_type;location;lat;lon;timestamp;temperature;humidity
61979;DHT22;47938;48.176;16.414;2022-09-03T00:00:51;14.80;66.90
61979;DHT22;47938;48.176;16.414;2022-09-03T00:03:36;14.70;67.20
61979;DHT22;47938;48.176;16.414;2022-09-03T00:06:16;14.60;68.10
61979;DHT22;47938;48.176;16.414;2022-09-03T00:11:22;14.40;69.90
61979;DHT22;47938;48.176;16.414;2022-09-03T00:14:20;14.40;70.20
61979;DHT22;47938;48.176;16.414;2022-09-03T00:16:56;14.30;70.90
61979;DHT22;47938;48.176;16.414;2022-09-03T00:19:30;14.30;70.60
61979;DHT22;47938;48.176;16.414;2022-09-03T00:22:02;14.20;70.70
61979;DHT22;47938;48.176;16.414;2022-09-03T00:24:34;14.20;70.10
61979;DHT22;47938;48.176;16.414;2022-09-03T00:27:04;14.20;70.60
61979;DHT22;47938;48.176;16.414;2022-09-03T00:29:38;14.10;70.70
61979;DHT22;47938;48.176;16.414;2022-09-03T00:32:12;14.10;70.20
61979;DHT22;47938;48.176;16.414;2022-09-03T00:34:44;14.10;70.90
61979;DHT22;47938;48.176;16.414;2022-09-03T00:37:11;14.10;70.60
61979;DHT22;47938;48.176;16.414;2022-09-03T00:39:37;14.00;71.10
61979;DHT22;47938;48.176;16.414;2022-09-03T01:01:33;13.80;73.80
61979;DHT22;47938;48.176;16.414;2022-09-03T01:15:17;13.90;73.20
61979;DHT22;47938;48.176;16.414;2022-09-03T01:17:59;13.90;72.70
61979;DHT22;47938;48.176;16.414;2022-09-03T01:26:39;13.80;73.60
61979;DHT22;47938;48.176;16.414;2022-09-03T01:37:01;13.40;76.60
61979;DHT22;47938;48.176;16.414;2022-09-03T01:45:09;13.30;77.70
61979;DHT22;47938;48.176;16.414;2022-09-03T01:53:40;13.20;78.30
61979;DHT22;47938;48.176;16.414;2022-09-03T02:02:21;13.10;79.70
61979;DHT22;47938;48.176;16.414;2022-09-03T02:07:33;13.00;80.40
61979;DHT22;47938;48.176;16.414;2022-09-03T02:10:00;13.00;80.70
61979;DHT22;47938;48.176;16.414;2022-09-03T02:12:29;13.00;80.90
61979;DHT22;47938;48.176;16.414;2022-09-03T02:14:55;13.00;81.10
61979;DHT22;47938;48.176;16.414;2022-09-03T02:17:21;13.00;81.80
61979;DHT22;47938;48.176;16.414;2022-09-03T02:19:46;13.00;81.10
61979;DHT22;47938;48.176;16.414;2022-09-03T02:22:12;13.00;81.30
61979;DHT22;47938;48.176;16.414;2022-09-03T02:24:38;13.00;81.30
61979;DHT22;47938;48.176;16.414;2022-09-03T02:27:03;13.00;81.50
61979;DHT22;47938;48.176;16.414;2022-09-03T02:29:29;13.00;82.60
61979;DHT22;47938;48.176;16.414;2022-09-03T02:31:55;13.00;81.70
61979;DHT22;47938;48.176;16.414;2022-09-03T02:34:22;13.00;82.10
61979;DHT22;47938;48.176;16.414;2022-09-03T02:36:47;13.00;82.30
61979;DHT22;47938;48.176;16.414;2022-09-03T02:39:14;12.90;82.70
61979;DHT22;47938;48.176;16.414;2022-09-03T02:41:40;12.80;83.00
61979;DHT22;47938;48.176;16.414;2022-09-03T02:46:40;12.80;83.70
61979;DHT22;47938;48.176;16.414;2022-09-03T02:49:07;12.80;84.30
61979;DHT22;47938;48.176;16.414;2022-09-03T02:51:39;12.70;84.90
61979;DHT22;47938;48.176;16.414;2022-09-03T02:54:05;12.70;85.30
61979;DHT22;47938;48.176;16.414;2022-09-03T02:56:31;12.60;85.50
61979;DHT22;47938;48.176;16.414;2022-09-03T02:58:57;12.60;86.40
61979;DHT22;47938;48.176;16.414;2022-09-03T03:01:23;12.60;86.70
61979;DHT22;47938;48.176;16.414;2022-09-03T03:03:49;12.70;86.70
61979;DHT22;47938;48.176;16.414;2022-09-03T03:06:15;12.70;86.80
61979;DHT22;47938;48.176;16.414;2022-09-03T03:08:40;12.70;87.40
61979;DHT22;47938;48.176;16.414;2022-09-03T03:11:06;12.60;87.70
61979;DHT22;47938;48.176;16.414;2022-09-03T03:13:32;12.60;88.40
61979;DHT22;47938;48.176;16.414;2022-09-03T03:16:00;12.60;88.40
61979;DHT22;47938;48.176;16.414;2022-09-03T03:18:26;12.50;88.90
61979;DHT22;47938;48.176;16.414;2022-09-03T03:20:52;12.50;89.20
61979;DHT22;47938;48.176;16.414;2022-09-03T03:23:17;12.50;89.90
61979;DHT22;47938;48.176;16.414;2022-09-03T03:25:43;12.40;90.10
61979;DHT22;47938;48.176;16.414;2022-09-03T03:28:08;12.40;90.30
61979;DHT22;47938;48.176;16.414;2022-09-03T03:30:37;12.40;90.50
61979;DHT22;47938;48.176;16.414;2022-09-03T03:33:02;12.40;90.60
61979;DHT22;47938;48.176;16.414;2022-09-03T03:35:28;12.40;90.60
61979;DHT22;47938;48.176;16.414;2022-09-03T03:37:56;12.30;90.80
61979;DHT22;47938;48.176;16.414;2022-09-03T03:40:21;12.30;90.70
61979;DHT22;47938;48.176;16.414;2022-09-03T03:42:47;12.30;90.80
61979;DHT22;47938;48.176;16.414;2022-09-03T03:45:12;12.20;91.00
61979;DHT22;47938;48.176;16.414;2022-09-03T03:47:38;12.20;91.40
61979;DHT22;47938;48.176;16.414;2022-09-03T03:50:04;12.10;91.20
61979;DHT22;47938;48.176;16.414;2022-09-03T03:52:30;12.10;91.60
61979;DHT22;47938;48.176;16.414;2022-09-03T03:54:55;12.10;91.60
61979;DHT22;47938;48.176;16.414;2022-09-03T03:57:21;12.10;91.50
61979;DHT22;47938;48.176;16.414;2022-09-03T03:59:47;12.10;91.90
61979;DHT22;47938;48.176;16.414;2022-09-03T04:02:13;12.00;92.20
61979;DHT22;47938;48.176;16.414;2022-09-03T04:04:39;12.10;92.30
61979;DHT22;47938;48.176;16.414;2022-09-03T04:07:05;12.10;91.90
61979;DHT22;47938;48.176;16.414;2022-09-03T04:09:31;12.00;92.40
61979;DHT22;47938;48.176;16.414;2022-09-03T04:11:56;12.00;92.50
61979;DHT22;47938;48.176;16.414;2022-09-03T04:14:23;12.00;92.80
61979;DHT22;47938;48.176;16.414;2022-09-03T04:16:49;11.90;93.00
61979;DHT22;47938;48.176;16.414;2022-09-03T04:19:14;11.90;93.20
61979;DHT22;47938;48.176;16.414;2022-09-03T04:21:40;11.90;93.20
61979;DHT22;47938;48.176;16.414;2022-09-03T04:24:05;11.90;93.20
61979;DHT22;47938;48.176;16.414;2022-09-03T04:26:32;11.90;93.20
61979;DHT22;47938;48.176;16.414;2022-09-03T04:29:03;11.80;93.50
61979;DHT22;47938;48.176;16.414;2022-09-03T04:31:29;11.80;93.80
61979;DHT22;47938;48.176;16.414;2022-09-03T04:33:54;11.80;94.20
61979;DHT22;47938;48.176;16.414;2022-09-03T04:36:22;11.80;93.90
61979;DHT22;47938;48.176;16.414;2022-09-03T04:38:50;11.90;93.70
61979;DHT22;47938;48.176;16.414;2022-09-03T04:41:18;11.80;93.50
61979;DHT22;47938;48.176;16.414;2022-09-03T04:43:44;11.80;93.80
61979;DHT22;47938;48.176;16.414;2022-09-03T04:46:12;11.90;93.50
61979;DHT22;47938;48.176;16.414;2022-09-03T04:48:38;11.90;93.40
61979;DHT22;47938;48.176;16.414;2022-09-03T04:53:36;11.90;93.30
61979;DHT22;47938;48.176;16.414;2022-09-03T04:56:10;11.90;93.80
61979;DHT22;47938;48.176;16.414;2022-09-03T04:58:36;11.90;93.60
61979;DHT22;47938;48.176;16.414;2022-09-03T05:01:07;11.80;94.00
61979;DHT22;47938;48.176;16.414;2022-09-03T05:03:33;11.90;93.80
61979;DHT22;47938;48.176;16.414;2022-09-03T05:05:58;12.10;93.90
61979;DHT22;47938;48.176;16.414;2022-09-03T05:08:24;12.40;91.80
61979;DHT22;47938;48.176;16.414;2022-09-03T05:10:59;12.60;90.60
61979;DHT22;47938;48.176;16.414;2022-09-03T05:13:25;12.90;89.20
61979;DHT22;47938;48.176;16.414;2022-09-03T05:15:51;13.10;88.10
61979;DHT22;47938;48.176;16.414;2022-09-03T05:18:17;13.60;86.00
61979;DHT22;47938;48.176;16.414;2022-09-03T05:20:42;13.90;80.20
61979;DHT22;47938;48.176;16.414;2022-09-03T05:23:08;14.10;79.60
61979;DHT22;47938;48.176;16.414;2022-09-03T05:25:34;14.70;74.60
61979;DHT22;47938;48.176;16.414;2022-09-03T05:27:59;14.70;73.40
61979;DHT22;47938;48.176;16.414;2022-09-03T05:30:25;15.00;71.50
61979;DHT22;47938;48.176;16.414;2022-09-03T05:32:51;15.00;73.90
61979;DHT22;47938;48.176;16.414;2022-09-03T05:35:16;14.90;72.20
61979;DHT22;47938;48.176;16.414;2022-09-03T05:37:42;15.00;72.70
61979;DHT22;47938;48.176;16.414;2022-09-03T05:40:08;15.40;70.00
61979;DHT22;47938;48.176;16.414;2022-09-03T05:42:34;15.90;68.60
61979;DHT22;47938;48.176;16.414;2022-09-03T05:44:59;15.80;68.70
61979;DHT22;47938;48.176;16.414;2022-09-03T05:47:25;16.10;65.50
61979;DHT22;47938;48.176;16.414;2022-09-03T05:49:50;16.80;65.80
61979;DHT22;47938;48.176;16.414;2022-09-03T05:52:16;17.50;61.10
61979;DHT22;47938;48.176;16.414;2022-09-03T05:54:41;18.80;57.10
61979;DHT22;47938;48.176;16.414;2022-09-03T05:57:07;19.70;55.70
61979;DHT22;47938;48.176;16.414;2022-09-03T05:59:32;20.50;52.30
61979;DHT22;47938;48.176;16.414;2022-09-03T06:01:58;20.50;50.40
61979;DHT22;47938;48.176;16.414;2022-09-03T06:04:24;20.60;51.20
61979;DHT22;47938;48.176;16.414;2022-09-03T06:06:49;21.40;49.20
61979;DHT22;47938;48.176;16.414;2022-09-03T06:09:17;22.00;47.30
61979;DHT22;47938;48.176;16.414;2022-09-03T06:11:44;22.80;45.40
61979;DHT22;47938;48.176;16.414;2022-09-03T06:14:12;23.10;43.20
61979;DHT22;47938;48.176;16.414;2022-09-03T06:16:41;23.10;44.10
61979;DHT22;47938;48.176;16.414;2022-09-03T06:19:08;23.40;43.90
61979;DHT22;47938;48.176;16.414;2022-09-03T06:21:35;23.10;43.30
61979;DHT22;47938;48.176;16.414;2022-09-03T06:24:02;22.90;43.90
61979;DHT22;47938;48.176;16.414;2022-09-03T06:26:28;22.40;44.40
61979;DHT22;47938;48.176;16.414;2022-09-03T06:28:54;22.70;45.50
61979;DHT22;47938;48.176;16.414;2022-09-03T06:31:20;21.80;46.10
61979;DHT22;47938;48.176;16.414;2022-09-03T06:33:47;22.50;46.30
61979;DHT22;47938;48.176;16.414;2022-09-03T06:36:14;23.70;43.50
61979;DHT22;47938;48.176;16.414;2022-09-03T06:38:41;22.40;45.30
61979;DHT22;47938;48.176;16.414;2022-09-03T06:41:10;23.00;44.70
61979;DHT22;47938;48.176;16.414;2022-09-03T06:43:38;24.60;42.10
61979;DHT22;47938;48.176;16.414;2022-09-03T06:46:10;25.10;40.30
61979;DHT22;47938;48.176;16.414;2022-09-03T06:48:36;24.90;40.80
61979;DHT22;47938;48.176;16.414;2022-09-03T06:51:03;25.30;39.90
61979;DHT22;47938;48.176;16.414;2022-09-03T06:53:31;24.40;40.80
61979;DHT22;47938;48.176;16.414;2022-09-03T06:55:59;24.60;39.90
61979;DHT22;47938;48.176;16.414;2022-09-03T06:58:40;23.80;42.90
61979;DHT22;47938;48.176;16.414;2022-09-03T07:01:08;23.90;42.40
61979;DHT22;47938;48.176;16.414;2022-09-03T07:03:35;24.00;42.50
61979;DHT22;47938;48.176;16.414;2022-09-03T07:06:04;24.70;41.30
61979;DHT22;47938;48.176;16.414;2022-09-03T07:08:31;25.30;40.10
61979;DHT22;47938;48.176;16.414;2022-09-03T07:11:00;25.20;40.20
61979;DHT22;47938;48.176;16.414;2022-09-03T07:13:25;24.50;39.90
61979;DHT22;47938;48.176;16.414;2022-09-03T07:16:04;22.80;44.60
61979;DHT22;47938;48.176;16.414;2022-09-03T07:18:30;23.60;44.50
61979;DHT22;47938;48.176;16.414;2022-09-03T07:20:58;24.40;42.80
61979;DHT22;47938;48.176;16.414;2022-09-03T07:23:23;24.80;41.20
61979;DHT22;47938;48.176;16.414;2022-09-03T07:25:56;24.50;43.20
61979;DHT22;47938;48.176;16.414;2022-09-03T07:28:23;24.70;41.60
61979;DHT22;47938;48.176;16.414;2022-09-03T07:30:49;24.90;41.60
61979;DHT22;47938;48.176;16.414;2022-09-03T07:33:14;24.70;41.60
61979;DHT22;47938;48.176;16.414;2022-09-03T07:35:40;24.60;40.90
61979;DHT22;47938;48.176;16.414;2022-09-03T07:38:06;23.40;43.90
61979;DHT22;47938;48.176;16.414;2022-09-03T07:40:31;22.90;45.60
61979;DHT22;47938;48.176;16.414;2022-09-03T07:42:57;22.80;45.80
61979;DHT22;47938;48.176;16.414;2022-09-03T07:45:22;22.50;47.10
61979;DHT22;47938;48.176;16.414;2022-09-03T07:47:48;22.00;47.60
61979;DHT22;47938;48.176;16.414;2022-09-03T07:50:14;22.70;47.60
61979;DHT22;47938;48.176;16.414;2022-09-03T07:52:39;23.40;46.10
61979;DHT22;47938;48.176;16.414;2022-09-03T07:55:05;23.30;45.20
61979;DHT22;47938;48.176;16.414;2022-09-03T07:57:31;23.60;45.60
61979;DHT22;47938;48.176;16.414;2022-09-03T07:59:57;23.60;45.20
61979;DHT22;47938;48.176;16.414;2022-09-03T08:02:22;23.30;46.30
61979;DHT22;47938;48.176;16.414;2022-09-03T08:04:48;23.60;45.70
61979;DHT22;47938;48.176;16.414;2022-09-03T08:07:13;23.60;45.40
61979;DHT22;47938;48.176;16.414;2022-09-03T08:09:39;23.60;45.40
61979;DHT22;47938;48.176;16.414;2022-09-03T08:12:04;23.50;45.10
61979;DHT22;47938;48.176;16.414;2022-09-03T08:14:30;22.20;48.30
61979;DHT22;47938;48.176;16.414;2022-09-03T08:16:56;22.40;48.40
61979;DHT22;47938;48.176;16.414;2022-09-03T08:19:22;22.90;48.20
61979;DHT22;47938;48.176;16.414;2022-09-03T08:21:47;22.80;48.20
61979;DHT22;47938;48.176;16.414;2022-09-03T08:24:15;22.70;48.30
61979;DHT22;47938;48.176;16.414;2022-09-03T08:26:41;22.00;49.80
61979;DHT22;47938;48.176;16.414;2022-09-03T08:29:07;22.40;49.00
61979;DHT22;47938;48.176;16.414;2022-09-03T08:31:34;22.20;50.30
61979;DHT22;47938;48.176;16.414;2022-09-03T08:34:01;22.10;50.50
61979;DHT22;47938;48.176;16.414;2022-09-03T08:36:29;21.90;50.30
61979;DHT22;47938;48.176;16.414;2022-09-03T08:38:55;22.10;50.10
61979;DHT22;47938;48.176;16.414;2022-09-03T08:44:21;22.50;49.20
61979;DHT22;47938;48.176;16.414;2022-09-03T08:49:59;22.90;48.70
61979;DHT22;47938;48.176;16.414;2022-09-03T08:52:33;22.80;48.10
61979;DHT22;47938;48.176;16.414;2022-09-03T08:55:24;22.70;49.00
61979;DHT22;47938;48.176;16.414;2022-09-03T08:58:08;22.70;48.90
61979;DHT22;47938;48.176;16.414;2022-09-03T09:08:56;22.10;50.40
61979;DHT22;47938;48.176;16.414;2022-09-03T09:11:33;22.20;51.00
61979;DHT22;47938;48.176;16.414;2022-09-03T09:19:21;22.50;49.80
61979;DHT22;47938;48.176;16.414;2022-09-03T09:21:52;22.40;49.50
61979;DHT22;47938;48.176;16.414;2022-09-03T09:24:24;22.40;49.10
61979;DHT22;47938;48.176;16.414;2022-09-03T09:27:03;22.50;49.20
61979;DHT22;47938;48.176;16.414;2022-09-03T09:29:32;22.60;48.90
61979;DHT22;47938;48.176;16.414;2022-09-03T09:31:58;22.70;49.60
61979;DHT22;47938;48.176;16.414;2022-09-03T09:34:24;22.90;48.20
61979;DHT22;47938;48.176;16.414;2022-09-03T09:36:54;23.00;47.80
61979;DHT22;47938;48.176;16.414;2022-09-03T09:39:21;22.80;47.70
61979;DHT22;47938;48.176;16.414;2022-09-03T09:42:01;22.70;48.40
61979;DHT22;47938;48.176;16.414;2022-09-03T09:44:29;22.90;48.50
61979;DHT22;47938;48.176;16.414;2022-09-03T09:47:12;23.10;48.10
61979;DHT22;47938;48.176;16.414;2022-09-03T09:49:58;23.10;47.70
61979;DHT22;47938;48.176;16.414;2022-09-03T09:52:25;23.10;47.90
61979;DHT22;47938;48.176;16.414;2022-09-03T09:54:53;23.20;47.00
61979;DHT22;47938;48.176;16.414;2022-09-03T09:57:29;23.30;46.80
61979;DHT22;47938;48.176;16.414;2022-09-03T10:00:10;23.60;47.00
61979;DHT22;47938;48.176;16.414;2022-09-03T10:02:37;23.50;46.90
61979;DHT22;47938;48.176;16.414;2022-09-03T10:05:24;23.20;48.00
61979;DHT22;47938;48.176;16.414;2022-09-03T10:08:05;23.40;47.60
61979;DHT22;47938;48.176;16.414;2022-09-03T10:10:33;23.40;47.10
61979;DHT22;47938;48.176;16.414;2022-09-03T10:13:05;23.40;49.40
61979;DHT22;47938;48.176;16.414;2022-09-03T10:15:58;23.20;48.90
61979;DHT22;47938;48.176;16.414;2022-09-03T10:23:48;23.00;49.60
61979;DHT22;47938;48.176;16.414;2022-09-03T10:26:17;23.00;49.80
61979;DHT22;47938;48.176;16.414;2022-09-03T10:28:50;23.40;50.20
61979;DHT22;47938;48.176;16.414;2022-09-03T10:34:19;23.40;48.80
61979;DHT22;47938;48.176;16.414;2022-09-03T10:36:55;23.40;49.30
61979;DHT22;47938;48.176;16.414;2022-09-03T10:39:44;23.50;48.00
61979;DHT22;47938;48.176;16.414;2022-09-03T10:45:12;23.70;47.50
61979;DHT22;47938;48.176;16.414;2022-09-03T10:56:06;23.90;46.20
61979;DHT22;47938;48.176;16.414;2022-09-03T11:07:44;23.70;47.00
61979;DHT22;47938;48.176;16.414;2022-09-03T11:10:21;23.90;46.70
61979;DHT22;47938;48.176;16.414;2022-09-03T11:13:05;24.00;45.90
61979;DHT22;47938;48.176;16.414;2022-09-03T11:15:38;24.00;45.90
61979;DHT22;47938;48.176;16.414;2022-09-03T11:20:45;24.50;45.00
61979;DHT22;47938;48.176;16.414;2022-09-03T11:23:12;24.20;45.00
61979;DHT22;47938;48.176;16.414;2022-09-03T11:25:48;24.20;45.40
61979;DHT22;47938;48.176;16.414;2022-09-03T11:28:40;24.50;45.50
61979;DHT22;47938;48.176;16.414;2022-09-03T11:31:17;24.90;44.40
61979;DHT22;47938;48.176;16.414;2022-09-03T11:34:24;25.10;43.50
61979;DHT22;47938;48.176;16.414;2022-09-03T11:36:51;24.90;43.40
61979;DHT22;47938;48.176;16.414;2022-09-03T11:44:52;25.10;42.80
61979;DHT22;47938;48.176;16.414;2022-09-03T11:47:45;25.00;42.90
61979;DHT22;47938;48.176;16.414;2022-09-03T11:52:42;25.00;43.20
61979;DHT22;47938;48.176;16.414;2022-09-03T11:55:08;25.10;43.00
61979;DHT22;47938;48.176;16.414;2022-09-03T11:57:40;25.30;42.50
61979;DHT22;47938;48.176;16.414;2022-09-03T12:00:11;25.20;42.80
61979;DHT22;47938;48.176;16.414;2022-09-03T12:02:43;24.90;42.60
61979;DHT22;47938;48.176;16.414;2022-09-03T12:07:46;24.80;42.70
61979;DHT22;47938;48.176;16.414;2022-09-03T12:10:40;24.90;43.10
61979;DHT22;47938;48.176;16.414;2022-09-03T12:13:19;24.90;42.80
61979;DHT22;47938;48.176;16.414;2022-09-03T12:18:28;25.20;42.00
61979;DHT22;47938;48.176;16.414;2022-09-03T12:23:48;25.20;41.50
61979;DHT22;47938;48.176;16.414;2022-09-03T12:26:37;25.20;42.70
61979;DHT22;47938;48.176;16.414;2022-09-03T12:29:03;25.40;41.40
61979;DHT22;47938;48.176;16.414;2022-09-03T12:31:32;25.30;41.30
61979;DHT22;47938;48.176;16.414;2022-09-03T12:34:11;25.20;41.40
61979;DHT22;47938;48.176;16.414;2022-09-03T12:36:46;25.10;41.60
61979;DHT22;47938;48.176;16.414;2022-09-03T12:39:17;25.10;41.80
61979;DHT22;47938;48.176;16.414;2022-09-03T12:42:01;25.10;41.70
61979;DHT22;47938;48.176;16.414;2022-09-03T12:47:10;25.30;41.60
61979;DHT22;47938;48.176;16.414;2022-09-03T12:49:46;25.20;41.10
61979;DHT22;47938;48.176;16.414;2022-09-03T12:54:53;25.20;41.20
61979;DHT22;47938;48.176;16.414;2022-09-03T12:57:24;25.20;40.90
61979;DHT22;47938;48.176;16.414;2022-09-03T12:59:53;25.30;42.00
61979;DHT22;47938;48.176;16.414;2022-09-03T13:05:03;25.40;40.90
61979;DHT22;47938;48.176;16.414;2022-09-03T13:07:33;25.50;40.80
61979;DHT22;47938;48.176;16.414;2022-09-03T13:10:03;25.50;40.40
61979;DHT22;47938;48.176;16.414;2022-09-03T13:12:33;25.60;40.30
61979;DHT22;47938;48.176;16.414;2022-09-03T13:15:06;25.60;40.40
61979;DHT22;47938;48.176;16.414;2022-09-03T13:23:28;25.80;40.20
61979;DHT22;47938;48.176;16.414;2022-09-03T13:28:35;25.50;40.60
61979;DHT22;47938;48.176;16.414;2022-09-03T13:31:34;25.50;40.60
61979;DHT22;47938;48.176;16.414;2022-09-03T13:39:36;25.30;40.70
61979;DHT22;47938;48.176;16.414;2022-09-03T13:42:23;25.40;40.80
61979;DHT22;47938;48.176;16.414;2022-09-03T13:45:02;25.40;41.10
61979;DHT22;47938;48.176;16.414;2022-09-03T13:47:39;25.20;41.00
61979;DHT22;47938;48.176;16.414;2022-09-03T13:50:10;25.20;41.50
61979;DHT22;47938;48.176;16.414;2022-09-03T13:55:55;25.30;41.70
61979;DHT22;47938;48.176;16.414;2022-09-03T13:58:47;25.30;40.90
61979;DHT22;47938;48.176;16.414;2022-09-03T14:04:20;25.30;41.30
61979;DHT22;47938;48.176;16.414;2022-09-03T14:07:14;25.30;41.10
61979;DHT22;47938;48.176;16.414;2022-09-03T14:10:05;25.30;41.30
61979;DHT22;47938;48.176;16.414;2022-09-03T14:12:48;25.30;41.20
61979;DHT22;47938;48.176;16.414;2022-09-03T14:15:29;25.30;41.50
61979;DHT22;47938;48.176;16.414;2022-09-03T14:20:52;25.50;41.00
61979;DHT22;47938;48.176;16.414;2022-09-03T14:26:34;25.70;41.00
61979;DHT22;47938;48.176;16.414;2022-09-03T14:31:47;25.80;40.60
61979;DHT22;47938;48.176;16.414;2022-09-03T14:39:55;25.60;40.60
61979;DHT22;47938;48.176;16.414;2022-09-03T15:01:39;25.70;40.90
61979;DHT22;47938;48.176;16.414;2022-09-03T15:09:41;25.40;41.30
61979;DHT22;47938;48.176;16.414;2022-09-03T15:12:17;25.40;41.40
61979;DHT22;47938;48.176;16.414;2022-09-03T15:14:56;25.40;41.70
61979;DHT22;47938;48.176;16.414;2022-09-03T15:20:49;25.00;42.30
61979;DHT22;47938;48.176;16.414;2022-09-03T15:34:46;25.10;42.50
61979;DHT22;47938;48.176;16.414;2022-09-03T15:37:26;25.10;42.50
61979;DHT22;47938;48.176;16.414;2022-09-03T15:42:27;25.20;42.70
61979;DHT22;47938;48.176;16.414;2022-09-03T15:45:03;25.10;42.40
61979;DHT22;47938;48.176;16.414;2022-09-03T15:53:03;24.90;42.80
61979;DHT22;47938;48.176;16.414;2022-09-03T15:55:36;24.80;43.10
61979;DHT22;47938;48.176;16.414;2022-09-03T16:00:39;24.60;43.50
61979;DHT22;47938;48.176;16.414;2022-09-03T16:03:13;24.50;43.60
61979;DHT22;47938;48.176;16.414;2022-09-03T16:05:45;24.40;43.50
61979;DHT22;47938;48.176;16.414;2022-09-03T16:08:21;24.50;43.60
61979;DHT22;47938;48.176;16.414;2022-09-03T16:10:55;24.40;43.90
61979;DHT22;47938;48.176;16.414;2022-09-03T16:13:49;24.50;44.00
61979;DHT22;47938;48.176;16.414;2022-09-03T16:16:23;24.50;44.20
61979;DHT22;47938;48.176;16.414;2022-09-03T16:19:04;24.40;44.30
61979;DHT22;47938;48.176;16.414;2022-09-03T16:24:22;24.40;44.50
61979;DHT22;47938;48.176;16.414;2022-09-03T16:27:06;24.30;44.70
61979;DHT22;47938;48.176;16.414;2022-09-03T16:29:33;24.30;45.00
61979;DHT22;47938;48.176;16.414;2022-09-03T16:40:51;23.90;45.70
61979;DHT22;47938;48.176;16.414;2022-09-03T16:46:19;23.90;46.00
61979;DHT22;47938;48.176;16.414;2022-09-03T16:49:04;23.80;46.30
61979;DHT22;47938;48.176;16.414;2022-09-03T16:57:07;23.60;46.80
61979;DHT22;47938;48.176;16.414;2022-09-03T17:02:40;23.50;47.20
61979;DHT22;47938;48.176;16.414;2022-09-03T17:08:18;23.40;48.20
61979;DHT22;47938;48.176;16.414;2022-09-03T17:10:53;23.30;47.40
61979;DHT22;47938;48.176;16.414;2022-09-03T17:16:14;23.20;47.70
61979;DHT22;47938;48.176;16.414;2022-09-03T17:19:04;23.10;47.80
61979;DHT22;47938;48.176;16.414;2022-09-03T17:32:21;22.90;48.70
61979;DHT22;47938;48.176;16.414;2022-09-03T17:35:17;22.80;48.80
61979;DHT22;47938;48.176;16.414;2022-09-03T17:48:54;22.60;49.20
61979;DHT22;47938;48.176;16.414;2022-09-03T17:51:48;22.50;49.40
61979;DHT22;47938;48.176;16.414;2022-09-03T18:02:21;22.40;50.10
61979;DHT22;47938;48.176;16.414;2022-09-03T18:15:38;22.30;50.80
61979;DHT22;47938;48.176;16.414;2022-09-03T18:18:32;22.30;51.10
61979;DHT22;47938;48.176;16.414;2022-09-03T18:21:00;22.20;51.30
61979;DHT22;47938;48.176;16.414;2022-09-03T18:23:28;22.20;51.50
61979;DHT22;47938;48.176;16.414;2022-09-03T18:26:00;22.20;51.70
61979;DHT22;47938;48.176;16.414;2022-09-03T18:29:00;22.20;51.80
61979;DHT22;47938;48.176;16.414;2022-09-03T18:31:27;22.20;51.90
61979;DHT22;47938;48.176;16.414;2022-09-03T18:33:52;22.10;52.10
61979;DHT22;47938;48.176;16.414;2022-09-03T18:36:19;22.10;52.20
61979;DHT22;47938;48.176;16.414;2022-09-03T18:38:45;22.00;52.50
61979;DHT22;47938;48.176;16.414;2022-09-03T18:44:27;22.00;52.80
61979;DHT22;47938;48.176;16.414;2022-09-03T18:52:20;21.90;53.40
61979;DHT22;47938;48.176;16.414;2022-09-03T18:55:00;21.90;53.50
61979;DHT22;47938;48.176;16.414;2022-09-03T18:57:42;21.80;53.70
61979;DHT22;47938;48.176;16.414;2022-09-03T19:00:15;21.80;53.90
61979;DHT22;47938;48.176;16.414;2022-09-03T19:03:02;21.70;54.30
61979;DHT22;47938;48.176;16.414;2022-09-03T19:08:27;21.70;54.60
61979;DHT22;47938;48.176;16.414;2022-09-03T19:11:02;21.60;54.80
61979;DHT22;47938;48.176;16.414;2022-09-03T19:13:39;21.60;55.10
61979;DHT22;47938;48.176;16.414;2022-09-03T19:19:00;21.60;55.20
61979;DHT22;47938;48.176;16.414;2022-09-03T19:21:39;21.50;55.50
61979;DHT22;47938;48.176;16.414;2022-09-03T19:24:07;21.50;55.50
61979;DHT22;47938;48.176;16.414;2022-09-03T19:26:44;21.40;55.80
61979;DHT22;47938;48.176;16.414;2022-09-03T19:29:22;21.50;55.70
61979;DHT22;47938;48.176;16.414;2022-09-03T19:31:58;21.30;56.00
61979;DHT22;47938;48.176;16.414;2022-09-03T19:48:23;21.10;57.30
61979;DHT22;47938;48.176;16.414;2022-09-03T19:51:03;21.10;57.20
61979;DHT22;47938;48.176;16.414;2022-09-03T19:53:33;21.10;57.40
61979;DHT22;47938;48.176;16.414;2022-09-03T19:56:04;21.10;57.30
61979;DHT22;47938;48.176;16.414;2022-09-03T19:58:32;21.10;57.30
61979;DHT22;47938;48.176;16.414;2022-09-03T20:00:59;21.10;57.40
61979;DHT22;47938;48.176;16.414;2022-09-03T20:03:25;21.10;57.50
61979;DHT22;47938;48.176;16.414;2022-09-03T20:05:52;21.00;57.50
61979;DHT22;47938;48.176;16.414;2022-09-03T20:08:18;21.00;57.50
61979;DHT22;47938;48.176;16.414;2022-09-03T20:10:47;21.00;57.50
61979;DHT22;47938;48.176;16.414;2022-09-03T20:13:16;21.00;57.30
61979;DHT22;47938;48.176;16.414;2022-09-03T20:15:50;21.00;57.60
61979;DHT22;47938;48.176;16.414;2022-09-03T20:20:58;20.90;57.80
61979;DHT22;47938;48.176;16.414;2022-09-03T20:23:33;20.90;58.00
61979;DHT22;47938;48.176;16.414;2022-09-03T20:34:38;20.80;58.40
61979;DHT22;47938;48.176;16.414;2022-09-03T20:42:31;20.60;59.00
61979;DHT22;47938;48.176;16.414;2022-09-03T20:45:15;20.60;59.20
61979;DHT22;47938;48.176;16.414;2022-09-03T20:50:45;20.50;59.50
61979;DHT22;47938;48.176;16.414;2022-09-03T20:53:39;20.50;59.70
61979;DHT22;47938;48.176;16.414;2022-09-03T20:56:19;20.40;59.80
61979;DHT22;47938;48.176;16.414;2022-09-03T21:01:44;20.30;60.00
61979;DHT22;47938;48.176;16.414;2022-09-03T21:06:47;20.20;60.40
61979;DHT22;47938;48.176;16.414;2022-09-03T21:09:24;20.30;60.50
61979;DHT22;47938;48.176;16.414;2022-09-03T21:14:50;20.20;60.90
61979;DHT22;47938;48.176;16.414;2022-09-03T21:18:12;20.10;61.00
61979;DHT22;47938;48.176;16.414;2022-09-03T21:21:10;20.10;61.60
61979;DHT22;47938;48.176;16.414;2022-09-03T21:23:42;20.00;61.60
61979;DHT22;47938;48.176;16.414;2022-09-03T21:26:33;19.90;62.10
61979;DHT22;47938;48.176;16.414;2022-09-03T21:29:20;19.90;62.50
61979;DHT22;47938;48.176;16.414;2022-09-03T21:34:34;19.80;63.00
61979;DHT22;47938;48.176;16.414;2022-09-03T21:37:03;19.80;63.30
61979;DHT22;47938;48.176;16.414;2022-09-03T21:39:32;19.80;63.20
61979;DHT22;47938;48.176;16.414;2022-09-03T21:42:08;19.80;63.40